Time;durP1;ratioP1;P1;durP2;ratioP2;P2;SDS_P1;SDS_P2;PMS_P1;PMS_P2;Temp;Humidity;BMP_temperature;BMP_pressure;BME280_temperature;BME280_humidity;BME280_pressure;Samples;Min_cycle;Max_cycle;Signal;HPM_P1;HPM_P2
2022/10/03 00:01:49;;;;;;;8.90;4.70;;;;;;;10.04;100.00;98796.87;4165578;83;21906;-84
2022/10/03 00:08:27;;;;;;;9.05;4.62;;;;;;;10.02;100.00;98800.56;4164896;84;20995;-83
2022/10/03 00:14:53;;;;;;;13.35;5.70;;;;;;;10.04;100.00;98795.52;4179724;83;21012;-83
2022/10/03 00:21:24;;;;;;;10.20;5.30;;;;;;;10.03;100.00;98798.02;4169913;84;21946;-83
2022/10/03 00:27:37;;;;;;;7.10;3.83;;;;;;;10.01;100.00;98802.50;4293968;81;21044;-84
2022/10/03 00:34:29;;;;;;;9.20;4.70;;;;;;;9.99;100.00;98810.28;4311947;82;20975;-84
2022/10/03 00:41:08;;;;;;;8.13;4.90;;;;;;;10.00;100.00;98806.98;4306413;81;21575;-83
2022/10/03 00:47:21;;;;;;;11.22;5.62;;;;;;;9.99;100.00;98804.81;4296278;81;21565;-84
2022/10/03 00:53:59;;;;;;;15.10;6.50;;;;;;;9.98;100.00;98803.83;4202851;83;21051;-83
2022/10/03 01:00:24;;;;;;;15.80;7.35;;;;;;;9.93;100.00;98798.11;4200834;83;21060;-83
2022/10/03 01:07:14;;;;;;;16.75;8.75;;;;;;;9.89;100.00;98786.94;4200304;83;21039;-83
2022/10/03 01:13:46;;;;;;;12.53;9.25;;;;;;;9.88;100.00;98797.69;4200790;83;20955;-84
2022/10/03 01:20:16;;;;;;;17.87;8.13;;;;;;;9.90;100.00;98796.73;4358561;81;21004;-84
2022/10/03 01:26:28;;;;;;;15.75;9.28;;;;;;;9.89;100.00;98789.11;4361036;79;21022;-84
2022/10/03 01:32:48;;;;;;;15.58;7.78;;;;;;;9.91;100.00;98779.95;4290809;81;21038;-84
2022/10/03 01:39:16;;;;;;;13.83;7.03;;;;;;;9.95;100.00;98778.03;4286241;81;21932;-83
2022/10/03 01:46:01;;;;;;;20.00;7.58;;;;;;;9.98;100.00;98771.02;4312774;81;20960;-83
2022/10/03 01:52:29;;;;;;;13.43;7.58;;;;;;;9.98;100.00;98772.38;4304751;81;20971;-84
2022/10/03 01:59:26;;;;;;;10.90;5.95;;;;;;;9.97;100.00;98770.25;4298966;81;20984;-84
2022/10/03 02:06:24;;;;;;;11.28;6.50;;;;;;;9.99;100.00;98782.17;4205236;81;21573;-84
2022/10/03 02:12:34;;;;;;;9.85;7.03;;;;;;;9.99;100.00;98789.01;4295195;81;21054;-84
2022/10/03 02:18:54;;;;;;;19.17;6.70;;;;;;;9.99;100.00;98779.44;4241126;84;21009;-84
2022/10/03 02:25:29;;;;;;;12.70;7.35;;;;;;;10.02;100.00;98787.69;4208394;82;21071;-85
2022/10/03 02:32:07;;;;;;;12.88;6.53;;;;;;;10.02;100.00;98790.99;4232469;82;20977;-85
2022/10/03 02:38:23;;;;;;;16.12;7.47;;;;;;;10.01;100.00;98791.56;4405408;79;21022;-84
2022/10/03 02:44:59;;;;;;;21.62;8.83;;;;;;;10.02;100.00;98786.89;4360351;79;21075;-85
2022/10/03 02:51:38;;;;;;;11.08;7.05;;;;;;;10.00;100.00;98800.14;4396447;79;21003;-85
2022/10/03 02:58:02;;;;;;;14.73;8.23;;;;;;;10.00;100.00;98791.37;4185559;83;21909;-83
2022/10/03 03:04:31;;;;;;;15.60;6.65;;;;;;;10.02;100.00;98785.52;4308496;79;33287;-84
2022/10/03 03:11:10;;;;;;;15.28;6.65;;;;;;;9.99;100.00;98795.25;4212692;84;21062;-85
2022/10/03 03:17:52;;;;;;;12.23;5.87;;;;;;;9.97;100.00;98794.06;4166514;84;21022;-84
2022/10/03 03:24:39;;;;;;;12.00;6.92;;;;;;;10.00;100.00;98781.80;4169197;84;21039;-85
2022/10/03 03:31:14;;;;;;;16.97;6.83;;;;;;;10.00;100.00;98780.43;4133574;84;21072;-85
2022/10/03 03:37:40;;;;;;;13.68;7.50;;;;;;;9.98;100.00;98775.11;4144018;84;21088;-84
2022/10/03 03:44:07;;;;;;;14.10;5.90;;;;;;;9.97;100.00;98775.72;4163681;83;70053;-84
2022/10/03 03:50:22;;;;;;;12.23;5.80;;;;;;;9.94;100.00;98770.20;4102213;84;21055;-84
2022/10/03 03:57:02;;;;;;;6.78;4.90;;;;;;;10.00;100.00;98772.80;4138267;84;21047;-86
2022/10/03 04:03:09;;;;;;;12.98;6.00;;;;;;;9.98;100.00;98777.84;4139062;84;21026;-84
2022/10/03 04:09:51;;;;;;;16.57;5.53;;;;;;;10.00;100.00;98770.06;4138163;84;21011;-85
2022/10/03 04:23:33;;;;;;;13.80;6.33;;;;;;;10.02;100.00;98767.75;4143785;84;21011;-84
2022/10/03 04:30:07;;;;;;;10.90;6.20;;;;;;;10.03;100.00;98763.27;4154840;84;21016;-85
2022/10/03 04:36:39;;;;;;;14.63;6.25;;;;;;;10.02;100.00;98760.34;4209802;84;21006;-85
2022/10/03 04:43:23;;;;;;;20.72;6.75;;;;;;;10.03;100.00;98767.94;4213528;84;21836;-85
2022/10/03 04:50:15;;;;;;;13.48;6.50;;;;;;;10.05;100.00;98758.22;4144075;84;21083;-84
2022/10/03 04:56:57;;;;;;;13.72;6.25;;;;;;;10.06;100.00;98763.08;4137989;84;21003;-85
2022/10/03 05:03:14;;;;;;;19.70;7.17;;;;;;;10.10;100.00;98759.25;4096634;83;21482;-86
2022/10/03 05:09:52;;;;;;;18.48;7.67;;;;;;;10.13;100.00;98761.22;4166092;84;21026;-86
2022/10/03 05:16:09;;;;;;;15.75;7.03;;;;;;;10.15;100.00;98765.75;4136837;84;21051;-84
2022/10/03 05:22:41;;;;;;;19.48;7.35;;;;;;;10.13;100.00;98772.16;4148561;86;21010;-84
2022/10/03 05:29:04;;;;;;;11.60;6.60;;;;;;;10.12;100.00;98767.87;4085622;84;21073;-84
2022/10/03 05:35:50;;;;;;;14.03;7.37;;;;;;;10.14;100.00;98775.70;4101730;85;21003;-86
2022/10/03 05:42:09;;;;;;;13.98;6.35;;;;;;;10.13;100.00;98772.77;4104278;85;22419;-84
2022/10/03 05:48:30;;;;;;;14.15;5.92;;;;;;;10.10;100.00;98781.13;4136794;83;20992;-86
2022/10/03 05:55:19;;;;;;;17.57;6.72;;;;;;;10.06;100.00;98793.96;4140227;85;21071;-86
2022/10/03 06:01:46;;;;;;;9.73;4.80;;;;;;;10.00;100.00;98790.57;4046470;87;22253;-86
2022/10/03 06:08:20;;;;;;;12.78;4.35;;;;;;;9.99;100.00;98788.41;4022966;87;21026;-85
2022/10/03 06:15:16;;;;;;;9.28;3.90;;;;;;;9.99;100.00;98804.81;3992486;88;21067;-85
2022/10/03 06:21:36;;;;;;;16.37;4.40;;;;;;;10.00;100.00;98805.61;4007248;88;21071;-85
2022/10/03 06:28:08;;;;;;;16.75;5.00;;;;;;;10.05;100.00;98810.75;3977459;87;21052;-86
2022/10/03 06:34:30;;;;;;;10.10;5.05;;;;;;;10.07;100.00;98817.44;4085171;85;21066;-80
2022/10/03 06:40:57;;;;;;;7.58;4.10;;;;;;;10.13;100.00;98815.16;4086662;86;21083;-83
2022/10/03 06:47:46;;;;;;;10.50;4.65;;;;;;;10.20;100.00;98822.05;4061269;86;22004;-83
2022/10/03 06:54:26;;;;;;;8.98;4.40;;;;;;;10.21;100.00;98822.28;4052046;84;21066;-84
2022/10/03 07:00:51;;;;;;;8.05;3.35;;;;;;;10.21;100.00;98824.41;4083128;84;21655;-84
2022/10/03 07:07:48;;;;;;;8.33;3.65;;;;;;;10.23;100.00;98815.83;4101872;84;21029;-84
2022/10/03 07:14:15;;;;;;;10.18;5.40;;;;;;;10.28;100.00;98814.13;4114321;86;21037;-83
2022/10/03 07:21:13;;;;;;;7.58;4.10;;;;;;;10.32;100.00;98820.43;4091747;84;21017;-84
2022/10/03 07:27:52;;;;;;;12.07;4.50;;;;;;;10.36;100.00;98815.19;4106643;85;21030;-84
2022/10/03 07:34:17;;;;;;;8.90;3.47;;;;;;;10.40;100.00;98817.94;4103314;85;21054;-84
2022/10/03 07:40:36;;;;;;;11.80;3.60;;;;;;;10.43;100.00;98824.05;4097679;85;21022;-84
2022/10/03 07:47:03;;;;;;;8.63;3.77;;;;;;;10.44;100.00;98829.14;4114790;85;21001;-85
2022/10/03 07:53:50;;;;;;;6.80;3.65;;;;;;;10.43;100.00;98825.42;3904202;86;21113;-84
2022/10/03 08:00:15;;;;;;;10.00;4.25;;;;;;;10.31;100.00;98837.42;4085379;85;21310;-85
2022/10/03 08:06:37;;;;;;;10.25;3.60;;;;;;;10.23;100.00;98839.08;4110687;84;21089;-84
2022/10/03 08:20:08;;;;;;;9.78;3.00;;;;;;;10.20;100.00;98842.57;4058153;85;21018;-85
2022/10/03 08:26:34;;;;;;;10.13;3.37;;;;;;;10.22;100.00;98836.15;4080606;84;20998;-85
2022/10/03 08:32:59;;;;;;;8.33;2.85;;;;;;;10.24;100.00;98824.26;4110236;85;21037;-84
2022/10/03 08:39:35;;;;;;;13.15;3.50;;;;;;;10.56;100.00;98822.01;4100603;84;21016;-84
2022/10/03 08:46:13;;;;;;;6.10;3.05;;;;;;;10.73;100.00;98835.63;4101314;85;21094;-85
2022/10/03 08:52:29;;;;;;;8.55;3.05;;;;;;;10.69;100.00;98831.51;4111156;85;21021;-85
2022/10/03 08:59:23;;;;;;;6.30;3.02;;;;;;;10.61;100.00;98831.81;4103347;85;21429;-85
2022/10/03 09:05:58;;;;;;;9.93;2.83;;;;;;;10.54;100.00;98843.48;4105853;85;21078;-86
2022/10/03 09:12:42;;;;;;;6.50;3.12;;;;;;;10.53;100.00;98846.03;4089510;84;21098;-85
2022/10/03 09:19:09;;;;;;;9.30;2.80;;;;;;;10.55;100.00;98851.92;4095648;85;21012;-83
2022/10/03 09:25:40;;;;;;;11.55;2.77;;;;;;;10.74;100.00;98854.41;4092377;85;21697;-85
2022/10/03 09:32:20;;;;;;;11.05;3.70;;;;;;;10.88;100.00;98859.99;4116463;85;21043;-85
2022/10/03 09:38:53;;;;;;;10.50;3.65;;;;;;;10.90;100.00;98849.45;4107701;85;21547;-84
2022/10/03 09:45:36;;;;;;;8.40;3.58;;;;;;;10.91;100.00;98859.83;4128745;84;20987;-83
2022/10/03 09:52:02;;;;;;;8.78;3.60;;;;;;;11.02;100.00;98854.61;4110583;85;22024;-84
2022/10/03 09:58:39;;;;;;;7.70;3.10;;;;;;;11.44;100.00;98855.48;4111968;85;21067;-85
2022/10/03 10:05:38;;;;;;;6.85;2.90;;;;;;;11.52;100.00;98855.72;4113466;85;21069;-84
2022/10/03 10:12:14;;;;;;;6.87;2.58;;;;;;;11.34;100.00;98863.05;4112391;84;21028;-84
2022/10/03 10:18:42;;;;;;;7.10;2.97;;;;;;;11.25;100.00;98848.91;4112238;84;21532;-85
2022/10/03 10:25:35;;;;;;;3.95;2.45;;;;;;;11.32;100.00;98853.64;4100419;85;21070;-85
2022/10/03 10:32:09;;;;;;;5.37;1.98;;;;;;;11.28;100.00;98848.71;4103703;85;21643;-84
2022/10/03 10:38:24;;;;;;;5.35;2.52;;;;;;;11.17;100.00;98854.71;4043608;85;21119;-84
2022/10/03 10:45:03;;;;;;;5.97;2.65;;;;;;;11.08;100.00;98850.95;4170258;85;21108;-85
2022/10/03 10:52:01;;;;;;;7.20;2.20;;;;;;;11.07;100.00;98857.00;4107130;85;21609;-85
2022/10/03 10:58:37;;;;;;;3.67;2.15;;;;;;;11.07;100.00;98858.37;4121292;85;21024;-86
2022/10/03 11:05:35;;;;;;;8.43;2.58;;;;;;;11.04;100.00;98865.98;4117636;84;22007;-86
2022/10/03 11:11:48;;;;;;;4.95;2.62;;;;;;;10.98;100.00;98864.77;4112124;85;21106;-85
2022/10/03 11:18:46;;;;;;;4.72;2.55;;;;;;;10.87;100.00;98860.38;4114216;84;21888;-84
2022/10/03 11:32:20;;;;;;;6.53;3.00;;;;;;;10.72;100.00;98882.77;4097336;85;21071;-84
2022/10/03 11:38:46;;;;;;;8.53;3.33;;;;;;;10.72;100.00;98894.29;4116201;85;21044;-85
2022/10/03 11:45:35;;;;;;;5.00;2.50;;;;;;;10.72;100.00;98887.45;4113691;85;21039;-84
2022/10/03 11:51:58;;;;;;;9.00;2.50;;;;;;;10.68;100.00;98890.14;4038234;85;21053;-85
2022/10/03 11:58:30;;;;;;;4.60;2.75;;;;;;;10.63;100.00;98894.59;4079906;85;21050;-84
2022/10/03 12:05:10;;;;;;;4.90;2.20;;;;;;;10.59;100.00;98894.36;4113182;84;21579;-84
2022/10/03 12:11:41;;;;;;;6.17;2.77;;;;;;;10.50;100.00;98891.95;4111467;84;21715;-84
2022/10/03 12:18:02;;;;;;;5.08;2.55;;;;;;;10.50;100.00;98915.78;4117256;85;20987;-84
2022/10/03 12:24:23;;;;;;;6.60;2.55;;;;;;;10.55;100.00;98915.45;4087760;85;21023;-85
2022/10/03 12:30:30;;;;;;;4.53;2.80;;;;;;;10.61;100.00;98922.15;4092697;85;22087;-84
2022/10/03 12:37:13;;;;;;;6.27;2.80;;;;;;;10.65;100.00;98926.48;4087277;85;21091;-85
2022/10/03 12:43:56;;;;;;;4.40;2.35;;;;;;;10.68;100.00;98935.31;4089609;86;21027;-84
2022/10/03 12:50:47;;;;;;;4.35;2.45;;;;;;;10.67;100.00;98946.64;4098313;85;21057;-83
2022/10/03 12:57:29;;;;;;;8.25;2.62;;;;;;;10.70;100.00;98945.31;4092217;85;21148;-85
2022/10/03 13:04:00;;;;;;;9.85;3.70;;;;;;;10.81;100.00;98951.69;4046566;86;21524;-85
2022/10/03 13:10:28;;;;;;;5.22;2.65;;;;;;;10.91;100.00;98942.79;4087449;86;21592;-85
2022/10/03 13:16:50;;;;;;;6.75;2.58;;;;;;;10.95;100.00;98927.16;4087341;86;21103;-87
2022/10/03 13:23:24;;;;;;;5.90;2.80;;;;;;;11.12;100.00;98930.43;4091847;86;21068;-85
2022/10/03 13:30:00;;;;;;;4.55;1.98;;;;;;;11.20;100.00;98930.09;3876958;88;21130;-85
2022/10/03 13:36:32;;;;;;;5.45;1.95;;;;;;;11.30;100.00;98929.39;3921374;88;21938;-85
2022/10/03 13:42:46;;;;;;;6.53;2.42;;;;;;;11.51;100.00;98935.00;3937675;89;21067;-86
2022/10/03 13:49:09;;;;;;;5.28;1.90;;;;;;;11.68;100.00;98939.83;3934364;89;22039;-86
2022/10/03 13:55:32;;;;;;;3.47;2.30;;;;;;;11.65;100.00;98939.22;3974693;87;21860;-85
2022/10/03 14:02:00;;;;;;;5.87;2.30;;;;;;;11.54;100.00;98939.71;3976919;88;21453;-84
2022/10/03 14:08:45;;;;;;;4.35;3.15;;;;;;;11.50;100.00;98929.33;3927658;89;21126;-85
2022/10/03 14:15:25;;;;;;;5.05;2.60;;;;;;;11.43;100.00;98927.92;3939857;89;21120;-85
2022/10/03 14:21:58;;;;;;;6.45;2.90;;;;;;;11.38;100.00;98935.70;3933616;89;21142;-85
2022/10/03 14:28:26;;;;;;;5.83;2.42;;;;;;;11.38;100.00;98945.30;3942578;88;21036;-86
2022/10/03 14:35:20;;;;;;;5.55;2.90;;;;;;;11.38;100.00;98948.03;3948651;89;21815;-85
2022/10/03 14:41:46;;;;;;;4.87;2.75;;;;;;;11.35;100.00;98942.74;4061168;86;21058;-86
2022/10/03 14:47:52;;;;;;;7.57;2.70;;;;;;;11.34;100.00;98961.70;4073262;86;20988;-86
2022/10/03 14:54:21;;;;;;;4.83;2.83;;;;;;;11.30;100.00;98966.95;4083070;84;21070;-84
2022/10/03 15:00:46;;;;;;;4.65;2.70;;;;;;;11.26;100.00;98971.03;4090207;86;21066;-86
2022/10/03 15:06:55;;;;;;;5.97;3.17;;;;;;;11.18;100.00;98977.65;4081491;84;21047;-85
2022/10/03 15:13:18;;;;;;;7.67;3.02;;;;;;;11.04;100.00;98991.99;4086768;86;21077;-86
2022/10/03 15:19:27;;;;;;;8.18;2.90;;;;;;;10.92;100.00;99005.97;4069524;86;20996;-86
2022/10/03 15:25:38;;;;;;;3.47;2.50;;;;;;;10.90;100.00;99002.02;4093797;86;21085;-85
2022/10/03 15:31:44;;;;;;;6.30;2.50;;;;;;;10.93;100.00;99004.80;4075528;86;21033;-86
2022/10/03 15:37:47;;;;;;;5.83;2.60;;;;;;;10.90;100.00;99001.45;4074387;86;21012;-85
2022/10/03 15:44:03;;;;;;;7.20;3.05;;;;;;;10.83;100.00;99017.02;4084448;84;21020;-86
2022/10/03 15:50:22;;;;;;;5.10;2.63;;;;;;;10.78;100.00;99005.83;4100370;85;21037;-84
2022/10/03 15:56:30;;;;;;;7.40;3.77;;;;;;;10.78;100.00;99000.36;4083735;86;21024;-85
2022/10/03 16:02:40;;;;;;;5.35;3.47;;;;;;;10.80;100.00;99010.93;4087826;85;21021;-86
2022/10/03 16:09:19;;;;;;;17.23;4.95;;;;;;;10.77;100.00;99015.80;4087273;84;21656;-87
2022/10/03 16:16:03;;;;;;;10.75;4.05;;;;;;;10.77;100.00;99018.53;4093325;86;21587;-86
2022/10/03 16:22:32;;;;;;;8.53;4.37;;;;;;;10.77;100.00;99021.27;4084238;85;21087;-85
2022/10/03 16:28:44;;;;;;;9.15;5.05;;;;;;;10.72;100.00;99027.88;4101881;84;21037;-85
2022/10/03 16:34:47;;;;;;;9.73;4.87;;;;;;;10.71;100.00;99034.49;4098721;86;21003;-85
2022/10/03 16:41:00;;;;;;;9.08;5.10;;;;;;;10.68;100.00;99033.87;4142915;84;21005;-86
2022/10/03 16:47:04;;;;;;;9.75;4.78;;;;;;;10.66;100.00;99025.84;4079736;86;22026;-87
2022/10/03 16:53:11;;;;;;;9.03;4.92;;;;;;;10.65;100.00;99035.20;4092490;86;21022;-85
2022/10/03 16:59:16;;;;;;;;;;;;;;;10.66;100.00;99036.79;4071339;86;20992;-85
2022/10/03 17:05:23;;;;;;;7.65;4.67;;;;;;;10.66;100.00;99034.85;4073810;86;20113;-85
2022/10/03 17:11:26;;;;;;;10.80;5.55;;;;;;;10.66;100.00;99035.42;4072241;86;21011;-86
2022/10/03 17:17:33;;;;;;;9.95;5.28;;;;;;;10.67;100.00;99049.31;4082577;86;20992;-84
2022/10/03 17:23:59;;;;;;;8.48;4.95;;;;;;;10.66;100.00;99058.69;4101060;86;21047;-87
2022/10/03 17:30:06;;;;;;;8.60;4.83;;;;;;;10.63;100.00;99067.66;4077453;86;21049;-84
2022/10/03 17:36:48;;;;;;;14.97;5.00;;;;;;;10.62;100.00;99060.58;4137673;86;21040;-86
2022/10/03 17:42:56;;;;;;;8.43;4.33;;;;;;;10.59;100.00;99073.65;4141442;86;21735;-85
2022/10/03 17:49:22;;;;;;;10.32;4.92;;;;;;;10.56;100.00;99078.50;4058910;86;20999;-84
2022/10/03 17:55:31;;;;;;;10.23;4.08;;;;;;;10.54;100.00;99078.87;4123637;84;21025;-85
2022/10/03 18:01:37;;;;;;;10.28;5.12;;;;;;;10.53;100.00;99085.52;4079389;86;21054;-86
2022/10/03 18:07:43;;;;;;;7.08;4.85;;;;;;;10.53;100.00;99080.62;4070671;86;21934;-85
2022/10/03 18:13:49;;;;;;;15.63;5.42;;;;;;;10.51;100.00;99078.82;4076716;86;21011;-85
2022/10/03 18:20:03;;;;;;;9.63;5.20;;;;;;;10.46;100.00;99075.84;4076073;86;21185;-86
2022/10/03 18:26:16;;;;;;;13.62;6.20;;;;;;;10.43;100.00;99082.05;4140235;86;21966;-85
2022/10/03 18:32:23;;;;;;;10.78;4.50;;;;;;;10.41;100.00;99087.14;4102585;84;21521;-86
2022/10/03 18:38:38;;;;;;;12.18;4.62;;;;;;;10.39;100.00;99084.55;4109002;85;21622;-86
2022/10/03 18:45:00;;;;;;;10.55;5.03;;;;;;;10.37;100.00;99086.85;4097924;85;20983;-86
2022/10/03 18:51:28;;;;;;;10.78;5.22;;;;;;;10.36;100.00;99087.45;4105816;85;21066;-85
2022/10/03 18:57:41;;;;;;;13.95;4.97;;;;;;;10.32;100.00;99089.34;4100304;85;21039;-84
2022/10/03 19:04:04;;;;;;;11.00;5.33;;;;;;;10.28;100.00;99098.09;4105439;84;20995;-85
2022/10/03 19:10:33;;;;;;;9.88;5.47;;;;;;;10.28;100.00;99102.19;4105877;85;21002;-84
2022/10/03 19:16:49;;;;;;;11.33;5.20;;;;;;;10.27;100.00;99113.51;4167141;85;20950;-84
2022/10/03 19:23:01;;;;;;;12.90;6.00;;;;;;;10.24;100.00;99116.38;4100875;87;21019;-85
2022/10/03 19:35:53;;;;;;;14.93;5.08;;;;;;;10.21;100.00;99117.73;4107389;85;21031;-85
2022/10/03 19:42:12;;;;;;;10.32;6.30;;;;;;;10.15;100.00;99115.88;4155410;85;21557;-85
2022/10/03 19:48:17;;;;;;;11.65;5.95;;;;;;;10.14;100.00;99125.81;4068500;85;21078;-84
2022/10/03 19:54:35;;;;;;;15.20;6.83;;;;;;;10.14;100.00;99120.34;3988189;85;10000238;-85
2022/10/03 20:00:42;;;;;;;15.35;8.70;;;;;;;10.12;100.00;99123.45;4108223;85;21399;-85
2022/10/03 20:06:48;;;;;;;15.30;8.73;;;;;;;10.13;100.00;99120.14;4159451;85;21086;-85
2022/10/03 20:12:52;;;;;;;;;;;;;;;10.15;100.00;99123.31;4115788;85;21041;-85
2022/10/03 20:18:58;;;;;;;11.73;6.85;;;;;;;10.16;100.00;99119.41;4153429;85;20099;-85
2022/10/03 20:25:05;;;;;;;17.10;7.40;;;;;;;10.16;100.00;99122.14;4158841;85;21103;-85
2022/10/03 20:31:08;;;;;;;12.40;5.72;;;;;;;10.19;100.00;99122.77;4095912;85;21018;-86
2022/10/03 20:37:46;;;;;;;9.85;6.28;;;;;;;10.22;100.00;99129.66;4080387;86;21075;-85
2022/10/03 20:44:18;;;;;;;9.48;6.10;;;;;;;10.24;100.00;99131.43;4087544;86;21515;-85
2022/10/03 20:50:44;;;;;;;16.48;6.28;;;;;;;10.24;100.00;99132.80;4095053;86;21028;-85
2022/10/03 20:57:21;;;;;;;13.48;7.05;;;;;;;10.26;100.00;99128.33;4095704;86;21111;-86
2022/10/03 21:03:50;;;;;;;15.53;6.80;;;;;;;10.26;100.00;99134.59;4093377;84;21020;-85
2022/10/03 21:10:19;;;;;;;12.47;6.37;;;;;;;10.23;100.00;99129.87;4107885;84;21434;-86
2022/10/03 21:16:28;;;;;;;11.20;5.53;;;;;;;10.22;100.00;99135.14;4085218;86;21076;-86
2022/10/03 21:22:34;;;;;;;13.20;6.08;;;;;;;10.22;100.00;99132.97;4082577;86;21119;-86
2022/10/03 21:28:37;;;;;;;8.70;4.80;;;;;;;10.16;100.00;99142.66;4099553;84;21064;-85
2022/10/03 21:35:30;;;;;;;11.73;5.03;;;;;;;10.13;100.00;99141.43;4108291;85;21572;-85
2022/10/03 21:42:09;;;;;;;12.55;4.95;;;;;;;10.10;100.00;99144.90;4118391;85;21036;-86
2022/10/03 21:48:50;;;;;;;14.07;5.10;;;;;;;10.10;100.00;99143.53;4061046;86;21077;-86
2022/10/03 21:55:36;;;;;;;13.85;5.37;;;;;;;10.09;100.00;99141.17;4034626;86;21002;-86
2022/10/03 22:01:48;;;;;;;10.48;5.40;;;;;;;10.07;100.00;99141.53;3983239;87;21025;-86
2022/10/03 22:07:53;;;;;;;10.95;5.65;;;;;;;10.06;100.00;99141.88;3984608;88;21671;-84
2022/10/03 22:14:05;;;;;;;18.02;7.42;;;;;;;10.03;100.00;99147.52;3997665;88;21383;-84
2022/10/03 22:20:26;;;;;;;12.15;6.35;;;;;;;9.99;100.00;99134.34;3982851;87;21083;-84
2022/10/03 22:26:57;;;;;;;19.05;7.97;;;;;;;10.02;100.00;99135.58;3956207;89;21555;-84
2022/10/03 22:33:39;;;;;;;14.40;6.83;;;;;;;10.03;100.00;99133.04;3999297;88;21140;-84
2022/10/03 22:39:42;;;;;;;17.23;7.05;;;;;;;10.05;100.00;99123.89;4001183;88;22003;-84
2022/10/03 22:45:49;;;;;;;19.25;7.22;;;;;;;10.03;100.00;99116.06;4011800;86;21060;-85
2022/10/03 22:51:54;;;;;;;16.25;6.78;;;;;;;10.00;100.00;99114.06;4038430;87;21032;-84
2022/10/03 22:58:00;;;;;;;19.90;7.45;;;;;;;10.01;100.00;99122.47;4061212;86;21557;-86
2022/10/03 23:04:06;;;;;;;;;;;;;;;9.97;100.00;99127.67;4038486;87;21079;-84
2022/10/03 23:10:34;;;;;;;16.27;7.17;;;;;;;9.95;100.00;99125.31;4032386;87;20147;-84
2022/10/03 23:17:23;;;;;;;15.18;6.75;;;;;;;9.95;100.00;99117.67;4043502;86;21108;-84
2022/10/03 23:23:51;;;;;;;17.45;7.62;;;;;;;9.96;100.00;99117.91;4115943;84;21084;-83
2022/10/03 23:30:18;;;;;;;17.87;7.03;;;;;;;9.96;100.00;99109.70;3995275;88;21016;-84
2022/10/03 23:36:23;;;;;;;13.68;6.47;;;;;;;9.93;100.00;99103.60;3983882;87;21615;-84
2022/10/03 23:42:44;;;;;;;15.80;7.40;;;;;;;9.89;100.00;99113.68;3985158;88;21089;-84
2022/10/03 23:48:58;;;;;;;18.15;7.97;;;;;;;9.86;100.00;99109.75;4100086;85;21063;-84
2022/10/03 23:55:05;;;;;;;15.70;7.97;;;;;;;9.81;100.00;99105.95;4003276;88;21075;-84
